Time;durP1;ratioP1;P1;durP2;ratioP2;P2;SDS_P1;SDS_P2;PMS_P1;PMS_P2;Temp;Humidity;BMP_temperature;BMP_pressure;BME280_temperature;BME280_humidity;BME280_pressure;Samples;Min_cycle;Max_cycle;Signal;HPM_P1;HPM_P2
2024/01/08 00:01:02;;;;;;;6.05;3.65;;;;;;;3.70;49.90;102910.75;5136903;27;20043;-71
2024/01/08 00:03:30;;;;;;;6.93;3.92;;;;;;;3.77;50.25;102911.06;5144024;27;20047;-72
2024/01/08 00:05:58;;;;;;;6.88;4.32;;;;;;;3.78;50.95;102926.06;5146103;27;20095;-72
2024/01/08 00:08:26;;;;;;;7.82;4.68;;;;;;;3.67;50.24;102921.63;5138097;28;20047;-71
2024/01/08 00:10:55;;;;;;;6.68;4.53;;;;;;;3.57;50.34;102928.66;5145042;27;20047;-72
2024/01/08 00:13:23;;;;;;;6.38;4.82;;;;;;;3.49;50.53;102931.94;5149411;27;20047;-71
2024/01/08 00:15:51;;;;;;;7.68;4.18;;;;;;;3.44;50.24;102918.22;5138892;27;20096;-71
2024/01/08 00:18:20;;;;;;;5.00;4.25;;;;;;;3.46;50.27;102924.25;5136977;27;20043;-72
2024/01/08 00:20:48;;;;;;;8.73;3.95;;;;;;;3.57;49.40;102926.84;5143747;27;20111;-71
2024/01/08 00:23:16;;;;;;;6.88;4.65;;;;;;;3.68;49.74;102933.94;5131157;27;20051;-72
2024/01/08 00:25:44;;;;;;;7.68;4.32;;;;;;;3.65;50.05;102925.38;5148708;27;20043;-71
2024/01/08 00:28:13;;;;;;;7.00;4.78;;;;;;;3.57;50.04;102923.34;5146998;27;20057;-72
2024/01/08 00:30:41;;;;;;;7.15;4.65;;;;;;;3.56;49.85;102925.16;5145967;27;20044;-72
2024/01/08 00:33:09;;;;;;;8.02;4.80;;;;;;;3.57;50.14;102918.03;5139689;27;20074;-72
2024/01/08 00:35:37;;;;;;;8.57;5.65;;;;;;;3.50;50.13;102919.50;5138337;27;20051;-71
2024/01/08 00:38:05;;;;;;;6.93;4.57;;;;;;;3.47;49.66;102922.41;5147907;27;20063;-72
2024/01/08 00:40:33;;;;;;;9.80;5.68;;;;;;;3.44;50.04;102912.06;5137621;27;20052;-72
2024/01/08 00:43:00;;;;;;;8.68;5.40;;;;;;;3.50;49.12;102916.84;5127903;27;20055;-72
2024/01/08 00:45:30;;;;;;;8.32;5.05;;;;;;;3.44;49.95;102922.69;5139714;27;20529;-72
2024/01/08 00:47:58;;;;;;;9.02;5.63;;;;;;;3.52;50.07;102931.69;5136035;27;20047;-72
2024/01/08 00:50:27;;;;;;;7.20;4.82;;;;;;;3.64;49.62;102924.53;5134741;27;20088;-72
2024/01/08 00:52:55;;;;;;;7.13;4.57;;;;;;;3.72;49.82;102934.53;5133599;27;20063;-72
2024/01/08 00:55:22;;;;;;;8.55;5.53;;;;;;;3.76;49.41;102931.50;5127805;28;20047;-72
2024/01/08 00:57:50;;;;;;;11.63;5.95;;;;;;;3.76;49.87;102931.50;5141138;27;20084;-72
2024/01/08 01:00:18;;;;;;;12.70;6.10;;;;;;;3.76;49.67;102925.34;5127062;28;20074;-71
2024/01/08 01:02:47;;;;;;;9.00;5.28;;;;;;;3.71;49.62;102931.03;5139922;27;20567;-72
2024/01/08 01:05:16;;;;;;;9.10;5.07;;;;;;;3.82;49.15;102932.81;5131609;27;20043;-72
2024/01/08 01:07:44;;;;;;;11.30;5.03;;;;;;;3.71;50.20;102931.03;5145375;27;20070;-72
2024/01/08 01:10:12;;;;;;;8.90;5.28;;;;;;;3.75;49.84;102939.63;5144663;27;20043;-72
2024/01/08 01:12:39;;;;;;;9.02;5.28;;;;;;;3.73;49.12;102937.09;5128794;27;20051;-72
2024/01/08 01:15:08;;;;;;;13.73;5.65;;;;;;;3.75;49.73;102936.97;5129044;27;20078;-72
2024/01/08 01:17:36;;;;;;;9.60;5.28;;;;;;;3.80;49.42;102935.59;5149252;27;20316;-72
2024/01/08 01:20:07;;;;;;;12.63;5.40;;;;;;;3.75;49.52;102940.47;5146660;27;20050;-71
2024/01/08 01:22:34;;;;;;;6.30;4.40;;;;;;;3.74;49.34;102927.28;5146915;27;20062;-72
2024/01/08 01:25:02;;;;;;;6.35;3.80;;;;;;;3.69;49.61;102937.47;5143362;27;20050;-71
2024/01/08 01:27:30;;;;;;;6.68;4.47;;;;;;;3.61;50.14;102919.47;5151516;27;20047;-72
2024/01/08 01:29:58;;;;;;;6.25;4.38;;;;;;;3.67;48.62;102929.59;5159917;27;20043;-71
2024/01/08 01:32:25;;;;;;;6.68;3.95;;;;;;;3.73;48.83;102928.25;5152644;27;20138;-72
2024/01/08 01:34:53;;;;;;;7.75;4.20;;;;;;;3.75;48.59;102931.63;5150931;27;20046;-72
2024/01/08 01:37:23;;;;;;;5.43;3.35;;;;;;;3.78;48.62;102929.56;5159732;27;20455;-72
2024/01/08 01:39:51;;;;;;;5.50;3.70;;;;;;;3.71;49.23;102927.53;5158572;27;20047;-71
2024/01/08 01:42:19;;;;;;;5.10;3.30;;;;;;;3.68;49.07;102930.44;5154722;27;20051;-72
2024/01/08 01:44:47;;;;;;;6.57;3.80;;;;;;;3.67;48.45;102932.25;5144204;27;20043;-72
2024/01/08 01:47:16;;;;;;;4.80;3.85;;;;;;;3.65;48.36;102928.88;5154208;27;20110;-72
2024/01/08 01:49:44;;;;;;;6.53;4.07;;;;;;;3.70;49.07;102933.81;5149009;27;20131;-71
2024/01/08 01:52:12;;;;;;;6.78;3.83;;;;;;;3.71;48.00;102923.06;5156311;27;20072;-71
2024/01/08 01:54:41;;;;;;;4.80;3.38;;;;;;;3.70;49.12;102936.50;5150131;27;20091;-72
2024/01/08 01:57:09;;;;;;;5.38;3.65;;;;;;;3.67;48.76;102934.06;5152258;27;20112;-71
2024/01/08 01:59:37;;;;;;;4.43;3.60;;;;;;;3.70;48.99;102932.00;5158796;27;20186;-71
2024/01/08 02:02:07;;;;;;;6.20;3.33;;;;;;;3.59;48.70;102937.38;5160889;27;20039;-71
2024/01/08 02:04:35;;;;;;;4.85;3.75;;;;;;;3.59;48.40;102935.53;5152869;27;20043;-71
2024/01/08 02:07:05;;;;;;;5.15;3.55;;;;;;;3.67;48.25;102940.25;5148338;27;20042;-72
2024/01/08 02:09:33;;;;;;;5.18;3.42;;;;;;;3.56;49.08;102941.13;5141953;27;20043;-71
2024/01/08 02:12:02;;;;;;;5.40;3.75;;;;;;;3.53;49.43;102949.34;5152607;27;20385;-71
2024/01/08 02:14:30;;;;;;;6.05;4.07;;;;;;;3.48;48.41;102946.22;5154123;27;20118;-72
2024/01/08 02:16:58;;;;;;;5.03;3.78;;;;;;;3.54;49.22;102939.53;5152904;27;20043;-71
2024/01/08 02:19:26;;;;;;;6.45;3.92;;;;;;;3.51;48.81;102942.44;5151299;27;20046;-71
2024/01/08 02:21:54;;;;;;;5.75;3.78;;;;;;;3.34;48.94;102938.53;5150191;27;20058;-71
2024/01/08 02:24:23;;;;;;;5.63;4.28;;;;;;;3.34;49.02;102941.19;5151389;27;20047;-71
2024/01/08 02:26:51;;;;;;;5.55;3.97;;;;;;;3.34;48.66;102935.03;5148730;27;20069;-73
2024/01/08 02:29:21;;;;;;;5.43;3.92;;;;;;;3.37;49.02;102945.41;5145250;27;20176;-71
2024/01/08 02:31:49;;;;;;;7.22;4.18;;;;;;;3.26;48.93;102935.66;5144636;27;20055;-71
2024/01/08 02:34:17;;;;;;;5.32;4.07;;;;;;;3.25;49.12;102939.28;5144057;27;20077;-71
2024/01/08 02:36:45;;;;;;;6.72;4.35;;;;;;;3.21;48.58;102941.31;5142506;27;20102;-71
2024/01/08 02:39:13;;;;;;;7.25;4.35;;;;;;;3.26;49.56;102955.09;5152333;27;20047;-71
2024/01/08 02:41:42;;;;;;;5.90;4.20;;;;;;;3.24;49.60;102951.72;5150970;27;20055;-72
2024/01/08 02:44:10;;;;;;;7.70;4.95;;;;;;;3.23;49.08;102941.19;5148780;27;20043;-71
2024/01/08 02:46:37;;;;;;;7.32;4.28;;;;;;;3.35;48.63;102957.97;5152194;27;20320;-72
2024/01/08 02:49:05;;;;;;;5.68;4.20;;;;;;;3.26;49.14;102957.75;5150831;27;20046;-72
2024/01/08 02:51:33;;;;;;;6.57;3.50;;;;;;;3.26;49.64;102964.88;5148848;27;20051;-71
2024/01/08 02:54:01;;;;;;;5.93;3.80;;;;;;;3.34;49.52;102965.09;5145678;27;20502;-72
2024/01/08 02:56:29;;;;;;;5.40;3.70;;;;;;;3.31;49.63;102970.66;5146523;27;20048;-71
2024/01/08 02:58:58;;;;;;;5.88;3.78;;;;;;;3.25;48.99;102965.84;5147317;27;20044;-71
2024/01/08 03:01:26;;;;;;;6.07;3.25;;;;;;;3.34;48.54;102969.56;5145585;27;20080;-71
2024/01/08 03:03:54;;;;;;;5.25;3.25;;;;;;;3.38;49.33;102971.88;5147363;27;20076;-72
2024/01/08 03:06:22;;;;;;;6.70;3.63;;;;;;;3.39;49.32;102972.72;5142085;27;20561;-72
2024/01/08 03:08:49;;;;;;;4.60;3.38;;;;;;;3.28;48.85;102954.97;5149325;27;20067;-72
2024/01/08 03:11:17;;;;;;;5.07;3.05;;;;;;;3.39;48.65;102983.34;5153112;27;20057;-71
2024/01/08 03:13:45;;;;;;;4.38;3.08;;;;;;;3.32;49.16;102980.34;5146725;27;20058;-71
2024/01/08 03:16:14;;;;;;;6.82;3.38;;;;;;;3.27;49.45;102974.53;5150194;27;20116;-71
2024/01/08 03:18:42;;;;;;;6.95;3.35;;;;;;;3.15;49.73;102976.34;5151129;27;20038;-71
2024/01/08 03:21:10;;;;;;;4.63;2.92;;;;;;;3.14;49.88;102976.47;5143538;27;20047;-71
2024/01/08 03:23:38;;;;;;;5.30;3.20;;;;;;;3.10;49.92;102969.72;5140948;27;20051;-70
2024/01/08 03:26:06;;;;;;;5.05;3.08;;;;;;;3.21;49.08;102972.38;5145798;27;20061;-70
2024/01/08 03:28:34;;;;;;;4.47;3.08;;;;;;;3.26;49.38;102972.84;5153105;27;20071;-71
2024/01/08 03:31:02;;;;;;;4.65;3.35;;;;;;;3.19;49.46;102971.63;5146486;27;20047;-71
2024/01/08 03:33:31;;;;;;;7.10;3.30;;;;;;;3.12;49.53;102981.06;5146692;27;20145;-72
2024/01/08 03:35:59;;;;;;;5.75;3.30;;;;;;;3.06;49.86;102977.06;5145227;27;20381;-71
2024/01/08 03:38:27;;;;;;;4.85;3.40;;;;;;;3.13;49.50;102978.28;5143054;27;20043;-71
2024/01/08 03:40:56;;;;;;;4.75;3.20;;;;;;;3.21;48.90;102975.03;5146097;27;20043;-72
2024/01/08 03:43:24;;;;;;;5.95;3.38;;;;;;;3.24;49.28;102985.41;5149403;27;20177;-71
2024/01/08 03:45:52;;;;;;;5.45;3.40;;;;;;;3.31;48.77;102980.44;5143749;27;20054;-71
2024/01/08 03:48:20;;;;;;;5.75;3.15;;;;;;;3.33;49.65;102982.03;5150030;27;20051;-71
2024/01/08 03:50:50;;;;;;;4.82;3.35;;;;;;;3.36;49.64;102979.13;5146239;27;20077;-70
2024/01/08 03:53:17;;;;;;;4.57;3.20;;;;;;;3.36;49.09;102972.97;5148685;27;20047;-71
2024/01/08 03:55:45;;;;;;;4.72;3.22;;;;;;;3.36;49.37;102976.47;5148460;27;20067;-71
2024/01/08 03:58:13;;;;;;;4.82;3.40;;;;;;;3.37;48.87;102979.97;5146748;27;20042;-71
2024/01/08 04:00:41;;;;;;;7.32;3.38;;;;;;;3.28;49.87;102978.03;5136826;27;20111;-72
2024/01/08 04:03:09;;;;;;;6.38;3.45;;;;;;;3.20;50.06;102987.47;5144233;27;20379;-71
2024/01/08 04:05:37;;;;;;;6.13;3.40;;;;;;;3.17;49.58;102978.88;5139604;27;20047;-71
2024/01/08 04:08:06;;;;;;;5.45;3.10;;;;;;;3.24;49.32;102983.59;5149426;27;20059;-71
2024/01/08 04:10:34;;;;;;;4.57;3.20;;;;;;;3.29;49.50;102985.88;5155838;27;20057;-71
2024/01/08 04:13:02;;;;;;;4.45;3.10;;;;;;;3.28;50.13;102991.31;5152563;27;20047;-72
2024/01/08 04:15:30;;;;;;;5.43;3.25;;;;;;;3.09;49.98;102966.22;5146252;27;20043;-72
2024/01/08 04:17:57;;;;;;;5.65;3.50;;;;;;;3.15;49.51;102978.16;5149582;27;20044;-72
2024/01/08 04:20:26;;;;;;;6.43;3.83;;;;;;;3.19;49.34;102976.94;5145075;27;20070;-72
2024/01/08 04:22:53;;;;;;;5.72;3.30;;;;;;;3.20;49.77;102987.47;5149770;27;20043;-72
2024/01/08 04:25:23;;;;;;;5.50;3.35;;;;;;;3.24;49.51;102985.41;5152647;27;20100;-72
2024/01/08 04:27:50;;;;;;;6.25;3.10;;;;;;;3.24;49.62;102974.78;5147419;27;20043;-73
2024/01/08 04:30:18;;;;;;;6.70;3.40;;;;;;;3.23;49.62;102979.25;5147225;27;20119;-72
2024/01/08 04:32:46;;;;;;;5.07;3.33;;;;;;;3.20;49.93;102976.84;5148183;27;20043;-72
2024/01/08 04:35:15;;;;;;;5.05;3.38;;;;;;;3.20;49.54;102976.84;5144706;27;20046;-71
2024/01/08 04:37:43;;;;;;;4.50;3.13;;;;;;;3.21;49.84;102975.88;5143860;27;20081;-72
2024/01/08 04:40:12;;;;;;;5.95;3.15;;;;;;;3.27;49.44;102969.22;5143590;27;20051;-71
2024/01/08 04:42:41;;;;;;;5.22;3.33;;;;;;;3.30;49.73;102978.75;5146347;27;20084;-71
2024/01/08 04:45:09;;;;;;;4.97;3.10;;;;;;;3.23;50.41;102976.59;5150892;27;20068;-71
2024/01/08 04:47:37;;;;;;;7.07;3.53;;;;;;;3.27;50.07;102977.19;5141495;27;20069;-71
2024/01/08 04:50:06;;;;;;;6.43;3.63;;;;;;;3.22;49.81;102974.91;5143272;27;20040;-71
2024/01/08 04:52:34;;;;;;;5.15;3.53;;;;;;;3.10;50.01;102969.72;5141982;27;20589;-71
2024/01/08 04:55:02;;;;;;;4.47;3.20;;;;;;;3.14;49.89;102982.63;5137949;27;20047;-71
2024/01/08 04:57:30;;;;;;;5.47;3.65;;;;;;;3.13;50.11;102978.28;5155141;27;20069;-71
2024/01/08 04:59:59;;;;;;;6.10;3.33;;;;;;;3.10;50.35;102975.88;5150104;27;20042;-71
2024/01/08 05:02:27;;;;;;;7.90;3.20;;;;;;;3.14;50.72;102971.16;5148028;27;20047;-71
2024/01/08 05:04:55;;;;;;;6.70;3.38;;;;;;;3.13;50.71;102972.97;5153767;27;20058;-71
2024/01/08 05:07:23;;;;;;;4.05;2.97;;;;;;;3.17;50.53;102974.41;5145386;27;20078;-71
2024/01/08 05:09:51;;;;;;;8.13;3.80;;;;;;;3.14;49.90;102969.34;5152205;27;20088;-71
2024/01/08 05:12:18;;;;;;;7.60;3.05;;;;;;;3.16;50.87;102979.84;5146633;27;20408;-71
2024/01/08 05:14:46;;;;;;;4.72;3.15;;;;;;;3.14;50.03;102979.13;5158311;27;20107;-71
2024/01/08 05:17:15;;;;;;;7.18;3.55;;;;;;;3.16;50.29;102972.72;5148498;27;20047;-71
2024/01/08 05:19:43;;;;;;;6.70;3.47;;;;;;;3.14;50.16;102974.66;5154307;27;20504;-71
2024/01/08 05:22:11;;;;;;;5.72;3.33;;;;;;;3.06;51.27;102978.88;5143661;27;20081;-70
2024/01/08 05:24:38;;;;;;;5.70;3.40;;;;;;;3.03;50.83;102972.00;5154498;27;20051;-71
2024/01/08 05:27:06;;;;;;;6.07;3.58;;;;;;;3.06;51.02;102977.06;5148310;27;20043;-70
2024/01/08 05:29:34;;;;;;;6.70;3.67;;;;;;;3.10;50.05;102973.22;5149996;27;20042;-71
2024/01/08 05:32:02;;;;;;;5.03;3.25;;;;;;;3.12;50.05;102979.25;5153099;27;20251;-70
2024/01/08 05:34:31;;;;;;;5.40;3.50;;;;;;;3.06;51.17;102976.22;5158581;27;20047;-71
2024/01/08 05:36:59;;;;;;;5.30;3.63;;;;;;;3.03;50.37;102969.34;5152154;27;20067;-72
2024/01/08 05:39:27;;;;;;;5.97;3.47;;;;;;;3.03;50.94;102974.66;5145548;27;20477;-71
2024/01/08 05:41:55;;;;;;;5.63;3.75;;;;;;;3.11;50.60;102971.41;5156423;27;20054;-71
2024/01/08 05:44:22;;;;;;;6.93;3.95;;;;;;;3.14;50.66;102973.81;5146718;27;20069;-71
2024/01/08 05:46:50;;;;;;;5.97;4.28;;;;;;;3.11;51.38;102974.06;5148647;27;20078;-71
2024/01/08 05:49:18;;;;;;;4.80;3.22;;;;;;;3.10;50.60;102970.56;5151624;27;20047;-70
2024/01/08 05:51:47;;;;;;;7.10;3.67;;;;;;;3.10;50.94;102970.56;5146403;27;20150;-71
2024/01/08 05:54:16;;;;;;;7.68;3.60;;;;;;;3.02;51.69;102972.13;5034365;28;20054;-71
2024/01/08 05:56:44;;;;;;;8.95;4.03;;;;;;;2.97;51.67;102976.94;5037467;28;20145;-72
2024/01/08 05:59:11;;;;;;;5.10;3.65;;;;;;;2.94;51.17;102972.72;5040745;28;20045;-69
2024/01/08 06:01:39;;;;;;;5.85;4.20;;;;;;;2.96;51.07;102960.16;5027211;28;20064;-68
2024/01/08 06:04:07;;;;;;;6.65;4.13;;;;;;;2.90;51.27;102971.28;5021506;28;20126;-68
2024/01/08 06:06:35;;;;;;;6.90;4.35;;;;;;;2.86;51.59;102973.31;5030023;28;20064;-68
2024/01/08 06:09:06;;;;;;;6.03;4.25;;;;;;;2.90;51.28;102974.78;5027570;28;20053;-71
2024/01/08 06:11:34;;;;;;;6.20;4.00;;;;;;;2.99;51.35;102959.94;5027307;28;20052;-71
2024/01/08 06:14:03;;;;;;;6.43;4.00;;;;;;;3.13;51.33;102972.97;5025325;28;20120;-70
2024/01/08 06:16:35;;;;;;;11.85;4.15;;;;;;;3.28;50.58;102975.38;5021302;28;20046;-70
2024/01/08 06:19:03;;;;;;;7.28;4.03;;;;;;;3.40;50.34;102975.25;5021001;28;20046;-69
2024/01/08 06:21:31;;;;;;;7.60;4.15;;;;;;;3.59;50.14;102974.59;5031521;28;20107;-69
2024/01/08 06:23:59;;;;;;;6.22;4.30;;;;;;;3.74;49.66;102967.19;5031704;28;20045;-71
2024/01/08 06:26:31;;;;;;;6.03;4.10;;;;;;;3.98;49.51;102965.16;5022153;28;20056;-73
2024/01/08 06:29:00;;;;;;;6.72;4.22;;;;;;;4.02;49.03;102963.09;5023964;28;20133;-72
2024/01/08 06:31:28;;;;;;;9.25;3.90;;;;;;;4.06;48.65;102964.53;5027965;28;20118;-73
2024/01/08 06:33:55;;;;;;;8.15;4.03;;;;;;;4.17;48.56;102965.31;5022437;28;20057;-70
2024/01/08 06:36:25;;;;;;;6.53;4.30;;;;;;;4.38;48.75;102959.19;4741441;28;10001127;-71
2024/01/08 06:38:53;;;;;;;9.05;4.03;;;;;;;4.53;47.73;102964.06;5018385;28;20343;-73
2024/01/08 06:41:21;;;;;;;5.68;3.80;;;;;;;4.61;47.51;102962.56;5007545;28;20050;-71
2024/01/08 06:43:50;;;;;;;7.30;4.88;;;;;;;4.64;47.84;102960.47;5018399;28;20049;-67
2024/01/08 06:46:18;;;;;;;10.27;4.97;;;;;;;4.58;48.17;102964.50;5024121;28;20060;-70
2024/01/08 06:48:46;;;;;;;6.63;4.13;;;;;;;4.39;47.91;102971.50;5018341;28;20049;-69
2024/01/08 06:51:14;;;;;;;5.90;3.95;;;;;;;4.29;48.76;102973.25;5015888;28;20053;-68
2024/01/08 06:53:42;;;;;;;8.18;4.78;;;;;;;4.11;49.32;102973.81;5046982;27;20057;-65
2024/01/08 06:56:10;;;;;;;8.75;4.68;;;;;;;3.88;49.86;102961.56;5032360;27;20079;-66
2024/01/08 06:58:38;;;;;;;7.47;4.60;;;;;;;3.68;49.97;102959.69;5028128;28;20049;-66
2024/01/08 07:01:07;;;;;;;7.95;4.82;;;;;;;3.70;50.58;102958.59;5037554;28;20131;-67
2024/01/08 07:03:36;;;;;;;7.20;4.57;;;;;;;3.63;50.51;102962.72;5026114;28;20149;-68
2024/01/08 07:06:04;;;;;;;7.13;4.55;;;;;;;3.49;50.94;102966.50;5039661;28;20053;-68
2024/01/08 07:08:32;;;;;;;7.32;4.70;;;;;;;3.42;51.39;102969.81;5037377;28;20051;-63
2024/01/08 07:11:00;;;;;;;8.05;5.13;;;;;;;3.30;51.18;102968.13;5037229;28;20080;-66
2024/01/08 07:13:28;;;;;;;7.30;4.40;;;;;;;3.31;51.12;102968.00;5042721;28;20053;-69
2024/01/08 07:15:58;;;;;;;8.75;5.20;;;;;;;3.24;51.16;102967.66;5035046;28;20049;-69
2024/01/08 07:18:28;;;;;;;8.05;4.88;;;;;;;3.27;52.03;102979.84;5037700;28;20087;-69
2024/01/08 07:20:56;;;;;;;7.90;4.78;;;;;;;3.25;51.95;102979.13;5029099;28;20045;-69
2024/01/08 07:23:25;;;;;;;7.88;5.32;;;;;;;3.24;51.73;102985.41;5041466;28;20054;-69
2024/01/08 07:25:53;;;;;;;9.90;5.10;;;;;;;3.23;52.14;102989.03;5032549;28;20050;-68
2024/01/08 07:28:21;;;;;;;8.48;4.80;;;;;;;3.28;51.43;102986.84;5039270;28;20136;-68
2024/01/08 07:30:49;;;;;;;7.50;4.70;;;;;;;3.17;52.17;102992.16;5021633;28;20087;-69
2024/01/08 07:33:17;;;;;;;8.07;5.13;;;;;;;3.13;52.41;102988.91;5031963;28;20045;-69
2024/01/08 07:35:46;;;;;;;7.30;4.75;;;;;;;3.17;52.32;102993.00;5046703;28;20048;-68
2024/01/08 07:38:14;;;;;;;8.05;5.13;;;;;;;3.13;51.84;102994.22;5033455;28;20054;-68
2024/01/08 07:40:42;;;;;;;10.75;5.63;;;;;;;3.02;52.37;102996.03;5032970;28;20129;-67
2024/01/08 07:43:09;;;;;;;10.25;5.50;;;;;;;2.95;52.34;102998.31;5043673;28;20106;-68
2024/01/08 07:45:37;;;;;;;9.73;5.13;;;;;;;2.88;52.54;102995.28;5032852;28;20058;-68
2024/01/08 07:48:05;;;;;;;7.80;5.03;;;;;;;2.85;52.65;103000.00;5036034;28;20057;-68
2024/01/08 07:50:33;;;;;;;8.18;5.07;;;;;;;2.78;53.48;103002.28;5033703;28;20082;-68
2024/01/08 07:53:03;;;;;;;8.57;5.72;;;;;;;2.86;53.00;103004.34;5088304;27;20055;-67
2024/01/08 07:55:31;;;;;;;7.93;5.07;;;;;;;2.88;53.33;103007.72;5140628;27;20476;-67
2024/01/08 07:57:59;;;;;;;7.43;5.07;;;;;;;2.83;53.10;103002.75;5144560;27;20055;-67
2024/01/08 08:00:27;;;;;;;8.27;5.38;;;;;;;2.80;53.51;102997.69;5131736;28;20052;-68
2024/01/08 08:02:55;;;;;;;9.63;5.20;;;;;;;2.87;53.22;103009.53;5148273;27;20068;-67
2024/01/08 08:05:23;;;;;;;8.38;5.82;;;;;;;2.79;52.83;102992.50;5142817;27;20431;-69
2024/01/08 08:07:57;;;;;;;11.82;5.57;;;;;;;2.85;52.81;103000.84;5137337;28;20094;-68
2024/01/08 08:10:26;;;;;;;9.70;5.00;;;;;;;2.83;52.91;102999.25;5140312;27;20051;-67
2024/01/08 08:12:53;;;;;;;7.68;5.40;;;;;;;2.79;53.00;103006.63;5140993;28;20124;-68
2024/01/08 08:15:21;;;;;;;9.63;5.68;;;;;;;2.74;53.08;103015.91;5151212;27;20047;-68
2024/01/08 08:17:50;;;;;;;7.82;4.88;;;;;;;2.83;53.27;103009.88;5135141;28;20047;-68
2024/01/08 08:20:19;;;;;;;7.88;4.78;;;;;;;2.91;53.42;103013.63;5148719;27;20057;-69
2024/01/08 08:22:46;;;;;;;9.27;5.13;;;;;;;2.96;53.03;103007.97;5148772;27;20066;-69
2024/01/08 08:25:19;;;;;;;7.63;4.82;;;;;;;3.01;52.80;103013.78;5132019;27;20111;-70
2024/01/08 08:27:48;;;;;;;7.65;4.75;;;;;;;2.93;52.64;103010.88;5134717;28;20050;-69
2024/01/08 08:30:19;;;;;;;7.40;5.32;;;;;;;2.79;53.07;103016.41;5145991;27;20047;-69
2024/01/08 08:32:47;;;;;;;7.75;5.00;;;;;;;2.73;53.18;103017.72;5135092;27;20067;-68
2024/01/08 08:35:15;;;;;;;8.02;5.03;;;;;;;2.68;53.44;103011.06;5144602;27;20065;-69
2024/01/08 08:37:43;;;;;;;7.15;5.10;;;;;;;2.80;53.83;103015.44;5145888;27;20134;-69
2024/01/08 08:40:21;;;;;;;8.70;5.03;;;;;;;2.83;53.97;103012.53;5144560;27;20118;-68
2024/01/08 08:42:50;;;;;;;8.20;4.85;;;;;;;2.78;53.73;103015.56;5140503;27;20553;-68
2024/01/08 08:45:18;;;;;;;12.38;5.07;;;;;;;2.74;53.81;103016.75;5142714;27;20055;-68
2024/01/08 08:47:46;;;;;;;11.65;5.57;;;;;;;2.83;53.78;103025.81;5140909;27;20504;-68
2024/01/08 08:50:15;;;;;;;7.32;4.82;;;;;;;3.02;53.99;103026.09;5142949;27;20465;-68
2024/01/08 08:52:43;;;;;;;10.82;5.43;;;;;;;3.22;52.80;103024.53;5146340;27;20249;-68
2024/01/08 08:55:13;;;;;;;9.55;4.55;;;;;;;3.36;52.65;103018.13;5145538;27;20096;-68
2024/01/08 08:57:41;;;;;;;7.55;4.72;;;;;;;3.51;52.67;103019.53;5145018;27;20051;-70
2024/01/08 09:00:11;;;;;;;6.05;4.60;;;;;;;3.50;51.64;103007.22;5143869;27;20120;-69
2024/01/08 09:02:44;;;;;;;7.10;4.47;;;;;;;3.67;52.07;103017.34;5144882;27;20043;-70
2024/01/08 09:05:12;;;;;;;8.15;4.88;;;;;;;3.82;51.24;103024.09;5145034;27;20051;-68
2024/01/08 09:07:42;;;;;;;7.40;4.63;;;;;;;3.97;51.24;103015.84;5142702;27;20130;-69
2024/01/08 09:10:10;;;;;;;9.00;4.78;;;;;;;4.16;51.24;103029.31;5148422;27;20047;-68
2024/01/08 09:12:38;;;;;;;6.70;4.20;;;;;;;4.37;50.37;103019.56;5147980;27;20072;-69
2024/01/08 09:15:06;;;;;;;7.75;4.28;;;;;;;4.49;50.19;103034.50;5147792;27;20047;-69
2024/01/08 09:17:35;;;;;;;6.75;4.53;;;;;;;4.56;50.23;103026.84;5143125;27;20051;-70
2024/01/08 09:20:05;;;;;;;8.63;4.43;;;;;;;4.53;50.04;103043.09;5135031;27;20050;-69
2024/01/08 09:22:33;;;;;;;9.68;4.45;;;;;;;4.62;49.64;103037.00;5146669;27;20078;-68
2024/01/08 09:25:01;;;;;;;10.40;4.60;;;;;;;4.59;50.25;103037.25;5145513;27;20069;-69
2024/01/08 09:27:29;;;;;;;5.35;3.80;;;;;;;4.30;50.89;103037.00;5147696;27;20107;-69
2024/01/08 09:29:57;;;;;;;8.25;4.78;;;;;;;4.23;50.98;103038.50;5143987;27;20504;-69
2024/01/08 09:32:25;;;;;;;5.50;3.25;;;;;;;4.14;51.28;103047.22;5141990;27;20369;-69
2024/01/08 09:34:54;;;;;;;5.80;4.07;;;;;;;3.97;51.41;103047.75;5135146;27;20048;-69
2024/01/08 09:37:22;;;;;;;8.75;4.70;;;;;;;3.83;52.19;103049.72;5137543;27;20114;-69
2024/01/08 09:39:54;;;;;;;5.95;4.05;;;;;;;3.64;53.08;103038.88;5140680;27;20075;-69
2024/01/08 09:42:22;;;;;;;8.27;5.00;;;;;;;3.61;53.54;103049.75;5137157;27;20089;-69
2024/01/08 09:44:53;;;;;;;8.25;4.57;;;;;;;3.53;53.59;103055.69;5143851;27;20043;-69
2024/01/08 09:47:21;;;;;;;9.88;4.30;;;;;;;3.57;53.66;103054.47;5141320;27;20080;-69
2024/01/08 09:49:49;;;;;;;8.40;4.65;;;;;;;3.55;53.04;103053.75;5141152;27;20047;-69
2024/01/08 09:52:19;;;;;;;9.82;4.15;;;;;;;3.41;53.70;103053.16;5137382;27;20481;-69
2024/01/08 09:54:47;;;;;;;7.22;4.43;;;;;;;3.35;53.75;103051.84;5142429;27;20111;-69
2024/01/08 09:57:19;;;;;;;10.05;4.40;;;;;;;3.34;53.87;103058.13;5137483;27;20048;-68
2024/01/08 09:59:46;;;;;;;6.55;3.92;;;;;;;3.41;54.05;103062.00;5136476;27;20055;-68
2024/01/08 10:02:16;;;;;;;14.43;4.50;;;;;;;3.33;53.72;103064.41;5142989;27;20415;-69
2024/01/08 10:04:44;;;;;;;6.57;4.63;;;;;;;3.31;54.63;103062.84;5136685;27;20054;-69
2024/01/08 10:07:13;;;;;;;6.20;3.75;;;;;;;3.19;54.57;103062.81;5137586;27;20097;-69
2024/01/08 10:09:42;;;;;;;9.18;4.35;;;;;;;3.12;54.98;103047.47;5144519;27;20073;-69
2024/01/08 10:12:10;;;;;;;6.78;4.43;;;;;;;3.04;54.71;103052.53;5134426;27;20047;-70
2024/01/08 10:14:38;;;;;;;7.47;4.43;;;;;;;3.10;54.71;103047.59;5139507;27;20488;-69
2024/01/08 10:17:06;;;;;;;7.32;4.35;;;;;;;3.18;54.26;103050.50;5142229;27;20043;-71
2024/01/08 10:19:34;;;;;;;7.22;4.25;;;;;;;3.25;55.01;103053.53;5146051;27;20051;-69
2024/01/08 10:22:07;;;;;;;5.68;3.90;;;;;;;3.50;54.02;103049.75;5141139;27;20047;-70
2024/01/08 10:24:35;;;;;;;7.63;4.55;;;;;;;3.54;54.04;103052.06;5141138;27;20408;-69
2024/01/08 10:27:05;;;;;;;6.22;4.60;;;;;;;3.78;53.30;103046.59;5140008;27;20073;-70
2024/01/08 10:29:33;;;;;;;6.45;4.10;;;;;;;4.01;53.21;103043.88;5141897;27;20093;-70
2024/01/08 10:32:01;;;;;;;5.53;3.75;;;;;;;4.24;52.55;103038.38;5140122;27;20039;-70
2024/01/08 10:34:30;;;;;;;5.03;3.50;;;;;;;4.15;51.88;103046.25;5138081;27;20151;-70
2024/01/08 10:36:59;;;;;;;5.53;3.75;;;;;;;4.08;52.19;103039.75;5135264;27;20047;-70
2024/01/08 10:39:30;;;;;;;6.35;4.28;;;;;;;4.08;51.56;103031.75;5138697;27;20050;-68
2024/01/08 10:42:15;;;;;;;;;;;;;;;4.04;51.24;103033.00;5141933;27;20067;-69
2024/01/08 10:44:43;;;;;;;5.13;3.72;;;;;;;4.29;50.67;103032.66;5141754;27;19934;-69
2024/01/08 10:47:16;;;;;;;5.93;3.38;;;;;;;4.59;50.73;103031.91;5145694;27;20080;-69
2024/01/08 10:49:50;;;;;;;6.07;3.88;;;;;;;4.67;49.74;103032.13;5147701;27;20058;-69
2024/01/08 10:52:26;;;;;;;5.68;3.97;;;;;;;4.66;49.47;103026.91;5144646;27;20065;-68
2024/01/08 10:54:56;;;;;;;8.23;3.85;;;;;;;4.73;49.55;103012.09;5145434;27;20051;-70
2024/01/08 10:57:37;;;;;;;6.28;3.90;;;;;;;4.86;48.94;103018.09;5145653;27;20051;-68
2024/01/08 11:00:09;;;;;;;7.20;3.17;;;;;;;4.94;49.20;103014.75;5133542;27;20054;-68
2024/01/08 11:02:38;;;;;;;5.95;3.63;;;;;;;4.92;49.05;103025.56;5145193;27;20050;-69
2024/01/08 11:05:08;;;;;;;6.18;3.60;;;;;;;4.77;48.50;103013.53;5135309;27;20047;-70
2024/01/08 11:07:39;;;;;;;5.55;3.38;;;;;;;4.84;48.03;103014.72;5136850;27;20047;-69
2024/01/08 11:10:09;;;;;;;7.13;3.67;;;;;;;4.80;48.46;103000.81;5132545;27;20404;-68
2024/01/08 11:12:40;;;;;;;5.43;3.22;;;;;;;4.94;47.77;103010.28;5133949;27;20509;-69
2024/01/08 11:15:08;;;;;;;5.78;3.30;;;;;;;4.82;48.02;102993.53;5134905;27;20053;-70
2024/01/08 11:17:36;;;;;;;5.30;3.28;;;;;;;4.84;47.53;102999.56;5141310;27;20051;-73
2024/01/08 11:20:18;;;;;;;5.47;2.95;;;;;;;4.89;47.43;103007.16;5143526;27;20087;-70
2024/01/08 11:22:47;;;;;;;7.07;3.50;;;;;;;4.88;47.06;102994.81;5140678;27;20057;-70
2024/01/08 11:25:16;;;;;;;5.90;3.10;;;;;;;4.86;47.07;103005.59;5137526;27;20047;-71
2024/01/08 11:27:45;;;;;;;4.82;3.13;;;;;;;5.03;46.71;103003.31;5138462;27;20047;-69
2024/01/08 11:30:14;;;;;;;5.65;3.65;;;;;;;4.88;46.88;102998.31;5139117;27;20074;-68
2024/01/08 11:33:10;;;;;;;5.63;3.33;;;;;;;5.01;46.34;103006.09;5143017;27;20047;-68
2024/01/08 11:35:43;;;;;;;5.68;3.22;;;;;;;4.69;47.19;103000.03;5141553;27;20043;-68
2024/01/08 11:38:26;;;;;;;5.75;3.15;;;;;;;4.74;46.41;102984.50;5141358;27;20080;-69
2024/01/08 11:40:55;;;;;;;7.75;3.38;;;;;;;4.65;46.19;102996.78;5144644;27;20103;-69